createdAt,value
2018-08-03T00:00:37.738Z,22.00
2018-08-03T00:03:06.494Z,21.90
2018-08-03T00:05:35.271Z,21.90
2018-08-03T00:10:55.348Z,21.80
2018-08-03T00:13:24.218Z,21.80
2018-08-03T00:15:53.010Z,21.70
2018-08-03T00:18:21.805Z,21.70
2018-08-03T00:20:50.568Z,21.70
2018-08-03T00:23:19.323Z,21.60
2018-08-03T00:28:16.691Z,21.60
2018-08-03T00:33:13.949Z,21.60
2018-08-03T00:35:42.737Z,21.50
2018-08-03T00:40:40.055Z,21.40
2018-08-03T00:43:08.793Z,21.40
2018-08-03T00:45:37.555Z,21.40
2018-08-03T00:48:06.313Z,21.40
2018-08-03T00:50:35.073Z,21.40
2018-08-03T00:55:32.291Z,21.30
2018-08-03T00:58:01.100Z,21.30
2018-08-03T01:00:29.893Z,21.20
2018-08-03T01:02:58.660Z,21.20
2018-08-03T01:05:27.649Z,21.20
2018-08-03T01:07:56.417Z,21.20
2018-08-03T01:10:25.182Z,21.20
2018-08-03T01:12:53.981Z,21.10
2018-08-03T01:15:22.757Z,21.20
2018-08-03T01:20:19.998Z,21.10
2018-08-03T01:22:48.801Z,21.00
2018-08-03T01:25:17.593Z,21.10
2018-08-03T01:27:46.589Z,21.10
2018-08-03T01:32:43.836Z,21.10
2018-08-03T01:35:12.645Z,21.10
2018-08-03T01:37:41.458Z,21.10
2018-08-03T01:40:10.228Z,21.00
2018-08-03T01:45:07.561Z,20.90
2018-08-03T01:47:36.343Z,20.90
2018-08-03T01:50:05.352Z,20.90
2018-08-03T01:52:34.157Z,20.90
2018-08-03T01:55:02.921Z,20.90
2018-08-03T01:57:31.710Z,20.90
2018-08-03T02:00:00.496Z,20.90
2018-08-03T02:02:29.305Z,20.80
2018-08-03T02:04:58.112Z,20.80
2018-08-03T02:07:26.872Z,20.80
2018-08-03T02:09:55.666Z,20.80
2018-08-03T02:12:24.444Z,20.70
2018-08-03T02:14:53.230Z,20.70
2018-08-03T02:17:22.019Z,20.70
2018-08-03T02:19:50.812Z,20.70
2018-08-03T02:22:19.618Z,20.70
2018-08-03T02:24:48.389Z,20.70
2018-08-03T02:27:17.164Z,20.60
2018-08-03T02:29:45.917Z,20.60
2018-08-03T02:32:14.687Z,20.60
2018-08-03T02:37:11.914Z,20.60
2018-08-03T02:39:40.657Z,20.60
2018-08-03T02:42:09.443Z,20.60
2018-08-03T02:47:06.706Z,20.50
2018-08-03T02:52:03.996Z,20.50
2018-08-03T02:57:01.309Z,20.40
2018-08-03T02:59:30.237Z,20.40
2018-08-03T03:04:27.501Z,20.40
2018-08-03T03:06:56.280Z,20.40
2018-08-03T03:09:25.054Z,20.30
2018-08-03T03:11:53.837Z,20.30
2018-08-03T03:14:22.598Z,20.30
2018-08-03T03:16:51.988Z,20.30
2018-08-03T03:19:20.803Z,20.30
2018-08-03T03:21:49.557Z,20.30
2018-08-03T03:24:18.318Z,20.40
2018-08-03T03:26:47.121Z,20.40
2018-08-03T03:31:44.395Z,20.30
2018-08-03T03:34:13.138Z,20.30
2018-08-03T03:36:41.905Z,20.30
2018-08-03T03:39:12.593Z,20.30
2018-08-03T03:44:10.385Z,20.30
2018-08-03T03:49:07.657Z,20.30
2018-08-03T03:54:04.913Z,20.20
2018-08-03T03:56:33.729Z,20.20
2018-08-03T03:59:02.565Z,20.20
2018-08-03T04:01:31.408Z,20.20
2018-08-03T04:04:00.158Z,20.20
2018-08-03T04:06:28.941Z,20.20
2018-08-03T04:08:57.699Z,20.20
2018-08-03T04:11:26.499Z,20.20
2018-08-03T04:13:55.300Z,20.20
2018-08-03T04:16:29.264Z,20.20
2018-08-03T04:18:58.022Z,20.30
2018-08-03T04:21:26.789Z,20.30
2018-08-03T04:23:55.558Z,20.40
2018-08-03T04:26:24.318Z,20.40
2018-08-03T04:28:53.081Z,20.40
2018-08-03T04:33:50.362Z,20.40
2018-08-03T04:38:47.626Z,20.40
2018-08-03T04:41:16.414Z,20.40
2018-08-03T04:43:45.198Z,20.40
2018-08-03T04:46:13.948Z,20.40
2018-08-03T04:48:42.789Z,20.40
2018-08-03T04:51:11.513Z,20.40
2018-08-03T04:53:40.696Z,20.50
2018-08-03T04:56:09.445Z,20.50
2018-08-03T04:58:38.243Z,20.60
2018-08-03T05:01:06.973Z,20.70
2018-08-03T05:03:35.737Z,20.80
2018-08-03T05:06:04.497Z,20.70
2018-08-03T05:11:01.769Z,20.80
2018-08-03T05:13:30.573Z,20.90
2018-08-03T05:18:27.876Z,21.00
2018-08-03T05:20:56.625Z,21.00
2018-08-03T05:25:53.859Z,21.10
2018-08-03T05:28:22.652Z,21.10
2018-08-03T05:30:51.412Z,21.20
2018-08-03T05:33:20.190Z,21.20
2018-08-03T05:35:48.986Z,21.20
2018-08-03T05:38:17.844Z,21.30
2018-08-03T05:43:15.135Z,21.40
2018-08-03T05:45:43.899Z,21.40
2018-08-03T05:53:09.630Z,21.60
2018-08-03T05:55:38.393Z,21.60
2018-08-03T05:58:07.181Z,21.70
2018-08-03T06:00:35.943Z,21.70
2018-08-03T06:03:04.797Z,21.70
2018-08-03T06:05:33.594Z,21.80
2018-08-03T06:08:02.378Z,21.80
2018-08-03T06:10:31.133Z,21.80
2018-08-03T06:15:28.421Z,21.90
2018-08-03T06:17:57.249Z,21.90
2018-08-03T06:20:26.025Z,22.00
2018-08-03T06:22:55.122Z,22.10
2018-08-03T06:30:21.153Z,22.20
2018-08-03T06:32:50.016Z,22.20
2018-08-03T06:35:18.741Z,22.30
2018-08-03T06:37:47.540Z,22.30
2018-08-03T06:40:16.352Z,22.30
2018-08-03T06:42:45.273Z,22.30
2018-08-03T06:45:14.070Z,22.40
2018-08-03T06:47:42.861Z,22.40
2018-08-03T06:50:11.629Z,22.40
2018-08-03T06:52:40.524Z,22.50
2018-08-03T06:55:09.314Z,22.60
2018-08-03T06:57:38.194Z,22.60
2018-08-03T07:00:07.425Z,22.70
2018-08-03T07:02:36.445Z,22.70
2018-08-03T07:07:33.660Z,22.80
2018-08-03T07:10:02.429Z,22.80
2018-08-03T07:12:31.436Z,22.90
2018-08-03T07:15:00.417Z,23.00
2018-08-03T07:17:29.143Z,23.10
2018-08-03T07:19:57.951Z,23.10
2018-08-03T07:22:26.701Z,23.20
2018-08-03T07:24:56.038Z,23.20
2018-08-03T07:27:24.853Z,23.30
2018-08-03T07:32:22.131Z,23.40
2018-08-03T07:39:47.861Z,23.50
2018-08-03T07:42:16.628Z,23.60
2018-08-03T07:44:45.454Z,23.70
2018-08-03T07:52:11.165Z,23.90
2018-08-03T07:54:39.977Z,23.90
2018-08-03T07:57:08.945Z,24.10
2018-08-03T07:59:37.846Z,24.10
2018-08-03T08:02:06.949Z,24.10
2018-08-03T08:04:35.777Z,24.20
2018-08-03T08:09:33.089Z,24.40
2018-08-03T08:14:30.293Z,24.50
2018-08-03T08:16:59.249Z,24.50
2018-08-03T08:21:56.441Z,24.60
2018-08-03T08:24:25.630Z,24.70
2018-08-03T08:26:54.389Z,24.80
2018-08-03T08:29:23.155Z,24.80
2018-08-03T08:31:52.406Z,24.90
2018-08-03T08:34:21.193Z,25.00
2018-08-03T08:36:50.175Z,25.00
2018-08-03T08:39:18.913Z,25.00
2018-08-03T08:41:47.686Z,25.00
2018-08-03T08:46:45.009Z,25.20
2018-08-03T08:49:13.856Z,25.20
2018-08-03T08:51:42.593Z,25.20
2018-08-03T08:54:11.373Z,25.30
2018-08-03T08:56:40.177Z,25.50
2018-08-03T08:59:08.951Z,25.50
2018-08-03T09:01:37.705Z,25.60
2018-08-03T09:06:34.961Z,25.60
2018-08-03T09:11:33.469Z,25.80
2018-08-03T09:14:02.350Z,25.90
2018-08-03T09:16:31.114Z,26.00
2018-08-03T09:18:59.877Z,26.00
2018-08-03T09:21:28.662Z,26.10
2018-08-03T09:23:57.684Z,26.10
2018-08-03T09:26:26.505Z,26.10
2018-08-03T09:31:23.774Z,26.40
2018-08-03T09:38:49.782Z,26.60
2018-08-03T09:41:18.549Z,26.70
2018-08-03T09:43:47.317Z,26.80
2018-08-03T09:46:16.112Z,26.80
2018-08-03T09:51:13.355Z,27.10
2018-08-03T09:53:42.148Z,27.20
2018-08-03T09:56:10.957Z,27.20
2018-08-03T10:01:10.925Z,27.50
2018-08-03T10:03:40.509Z,27.50
2018-08-03T10:06:09.604Z,27.50
2018-08-03T10:08:38.393Z,27.70
2018-08-03T10:11:07.890Z,27.70
2018-08-03T10:18:33.706Z,28.40
2018-08-03T10:21:02.625Z,28.40
2018-08-03T10:26:00.010Z,28.70
2018-08-03T10:30:57.390Z,28.80
2018-08-03T10:33:26.193Z,28.90
2018-08-03T10:35:55.117Z,29.10
2018-08-03T10:38:23.950Z,29.20
2018-08-03T10:43:21.233Z,29.60
2018-08-03T10:45:50.022Z,29.90
2018-08-03T10:48:18.781Z,29.90
2018-08-03T10:53:16.716Z,30.00
2018-08-03T10:55:45.570Z,30.10
2018-08-03T10:58:14.369Z,30.20
2018-08-03T11:00:43.109Z,30.30
2018-08-03T11:03:11.901Z,30.50
2018-08-03T11:05:40.801Z,30.70
2018-08-03T11:08:09.664Z,30.70
2018-08-03T11:10:38.497Z,30.70
2018-08-03T11:13:07.266Z,30.50
2018-08-03T11:15:36.050Z,30.70
2018-08-03T11:18:04.925Z,30.80
2018-08-03T11:20:33.674Z,30.50
2018-08-03T11:23:02.445Z,30.70
2018-08-03T11:27:59.794Z,31.40
2018-08-03T11:30:28.557Z,31.50
2018-08-03T11:32:57.540Z,31.20
2018-08-03T11:35:26.452Z,30.90
2018-08-03T11:37:55.282Z,30.60
2018-08-03T11:40:24.052Z,30.20
2018-08-03T11:42:52.825Z,30.20
2018-08-03T11:45:21.661Z,30.00
2018-08-03T11:50:18.921Z,30.10
2018-08-03T11:55:16.153Z,30.80
2018-08-03T11:57:45.022Z,31.00
2018-08-03T12:00:14.049Z,31.20
2018-08-03T12:02:42.992Z,31.80
2018-08-03T12:05:11.926Z,31.80
2018-08-03T12:07:40.769Z,31.90
2018-08-03T12:10:09.561Z,32.30
2018-08-03T12:12:38.384Z,32.00
2018-08-03T12:17:35.637Z,32.20
2018-08-03T12:20:04.481Z,32.30
2018-08-03T12:22:33.319Z,32.50
2018-08-03T12:25:02.124Z,32.80
2018-08-03T12:27:30.896Z,32.60
2018-08-03T12:29:59.654Z,32.80
2018-08-03T12:32:28.440Z,33.00
2018-08-03T12:37:25.674Z,32.70
2018-08-03T12:39:54.442Z,32.40
2018-08-03T12:42:23.257Z,32.20
2018-08-03T12:44:52.192Z,32.30
2018-08-03T12:47:20.994Z,32.90
2018-08-03T12:49:49.793Z,32.80
2018-08-03T12:52:18.922Z,32.40
2018-08-03T12:54:47.929Z,32.40
2018-08-03T12:57:16.777Z,33.00
2018-08-03T12:59:45.753Z,33.50
2018-08-03T13:02:14.513Z,33.70
2018-08-03T13:07:11.788Z,34.30
2018-08-03T13:09:40.535Z,34.30
2018-08-03T13:12:09.345Z,34.10
2018-08-03T13:14:38.118Z,33.90
2018-08-03T13:17:06.914Z,33.70
2018-08-03T13:19:35.668Z,33.60
2018-08-03T13:22:04.437Z,33.40
2018-08-03T13:24:33.218Z,33.30
2018-08-03T13:29:30.499Z,33.80
2018-08-03T13:34:27.723Z,34.00
2018-08-03T13:36:56.596Z,34.00
2018-08-03T13:39:25.321Z,33.70
2018-08-03T13:44:22.576Z,33.80
2018-08-03T13:46:51.957Z,34.10
2018-08-03T13:49:20.753Z,34.30
2018-08-03T13:51:49.541Z,34.60
2018-08-03T13:54:19.130Z,34.60
2018-08-03T13:56:47.853Z,34.40
2018-08-03T13:59:16.628Z,34.60
2018-08-03T14:01:56.829Z,34.30
2018-08-03T14:04:25.700Z,34.50
2018-08-03T14:06:54.584Z,34.40
2018-08-03T14:09:23.390Z,34.70
2018-08-03T14:11:52.143Z,34.50
2018-08-03T14:14:20.969Z,34.40
2018-08-03T14:16:49.823Z,34.70
2018-08-03T14:19:18.612Z,35.00
2018-08-03T14:21:47.401Z,35.00
2018-08-03T14:24:16.218Z,34.90
2018-08-03T14:26:44.977Z,35.00
2018-08-03T14:29:13.845Z,34.90
2018-08-03T14:31:42.619Z,35.00
2018-08-03T14:36:39.845Z,35.20
2018-08-03T14:39:09.581Z,35.30
2018-08-03T14:41:38.876Z,35.00
2018-08-03T14:44:08.381Z,35.00
2018-08-03T14:46:37.741Z,34.60
2018-08-03T14:49:06.615Z,34.90
2018-08-03T14:51:35.528Z,34.90
2018-08-03T14:54:04.368Z,34.90
2018-08-03T14:56:33.137Z,34.70
2018-08-03T14:59:02.093Z,35.00
2018-08-03T15:01:30.869Z,35.30
2018-08-03T15:03:59.688Z,35.40
2018-08-03T15:06:28.545Z,35.10
2018-08-03T15:08:57.361Z,34.90
2018-08-03T15:11:26.148Z,34.70
2018-08-03T15:13:55.040Z,34.90
2018-08-03T15:16:23.761Z,35.20
2018-08-03T15:18:52.590Z,34.90
2018-08-03T15:21:21.411Z,35.10
2018-08-03T15:23:50.201Z,35.20
2018-08-03T15:26:18.991Z,35.10
2018-08-03T15:28:47.840Z,35.30
2018-08-03T15:31:16.605Z,35.40
2018-08-03T15:33:45.449Z,35.50
2018-08-03T15:36:14.427Z,35.20
2018-08-03T15:38:43.493Z,35.00
2018-08-03T15:46:09.267Z,34.80
2018-08-03T15:48:38.349Z,35.00
2018-08-03T15:51:07.116Z,35.00
2018-08-03T15:56:04.484Z,35.30
2018-08-03T15:58:33.283Z,34.70
2018-08-03T16:01:02.061Z,34.70
2018-08-03T16:03:31.137Z,34.90
2018-08-03T16:05:59.921Z,34.80
2018-08-03T16:08:28.946Z,35.10
2018-08-03T16:13:26.181Z,34.20
2018-08-03T16:15:55.113Z,34.50
2018-08-03T16:18:23.861Z,34.80
2018-08-03T16:20:52.649Z,35.00
2018-08-03T16:23:21.428Z,35.10
2018-08-03T16:25:50.281Z,35.30
2018-08-03T16:28:19.145Z,35.30
2018-08-03T16:30:47.926Z,35.10
2018-08-03T16:33:16.912Z,35.10
2018-08-03T16:35:45.673Z,35.00
2018-08-03T16:38:14.421Z,35.00
2018-08-03T16:40:43.245Z,34.90
2018-08-03T16:45:40.603Z,34.80
2018-08-03T16:48:09.449Z,34.90
2018-08-03T16:50:38.225Z,34.80
2018-08-03T16:53:07.039Z,34.90
2018-08-03T16:55:35.798Z,34.90
2018-08-03T16:58:04.568Z,34.80
2018-08-03T17:00:33.378Z,34.90
2018-08-03T17:03:02.157Z,34.90
2018-08-03T17:05:30.929Z,34.70
2018-08-03T17:07:59.685Z,34.70
2018-08-03T17:12:56.910Z,34.90
2018-08-03T17:15:25.754Z,34.90
2018-08-03T17:17:54.517Z,34.80
2018-08-03T17:20:23.325Z,34.70
2018-08-03T17:25:20.802Z,34.30
2018-08-03T17:27:49.605Z,34.20
2018-08-03T17:30:18.364Z,34.10
2018-08-03T17:35:15.641Z,34.10
2018-08-03T17:40:13.599Z,34.20
2018-08-03T17:42:42.482Z,34.20
2018-08-03T17:45:14.104Z,34.10
2018-08-03T17:47:42.910Z,34.20
2018-08-03T17:50:11.929Z,34.00
2018-08-03T17:52:40.725Z,34.00
2018-08-03T17:55:09.576Z,33.90
2018-08-03T17:57:38.344Z,33.80
2018-08-03T18:00:09.532Z,33.60
2018-08-03T18:02:38.277Z,33.70
2018-08-03T18:05:09.105Z,33.50
2018-08-03T18:07:38.056Z,33.30
2018-08-03T18:10:09.240Z,33.30
2018-08-03T18:12:38.112Z,33.30
2018-08-03T18:15:09.580Z,33.20
2018-08-03T18:17:38.402Z,33.40
2018-08-03T18:20:12.046Z,34.70
2018-08-03T18:22:41.987Z,35.30
2018-08-03T18:25:10.878Z,35.50
2018-08-03T18:27:39.763Z,35.80
2018-08-03T18:30:17.741Z,35.80
2018-08-03T18:42:29.796Z,33.50
2018-08-03T18:45:05.343Z,32.30
2018-08-03T19:22:49.049Z,28.70
2018-08-03T19:25:23.413Z,28.50
2018-08-03T20:51:48.032Z,25.60
2018-08-03T20:54:16.800Z,25.50
2018-08-03T20:56:45.646Z,25.40
2018-08-03T20:59:14.397Z,25.40
2018-08-03T21:01:43.214Z,25.40
2018-08-03T21:04:12.077Z,25.40
2018-08-03T21:06:40.933Z,25.30
2018-08-03T21:09:11.206Z,25.30
2018-08-03T21:11:40.309Z,25.20
2018-08-03T21:14:09.086Z,25.20
2018-08-03T21:16:38.341Z,25.20
2018-08-03T21:19:07.157Z,25.20
2018-08-03T21:21:36.805Z,25.20
2018-08-03T21:24:06.313Z,25.10
2018-08-03T21:26:35.202Z,25.10
2018-08-03T21:29:04.071Z,25.00
2018-08-03T21:31:32.841Z,25.00
2018-08-03T21:34:01.764Z,24.90
2018-08-03T21:36:30.516Z,24.80
2018-08-03T21:38:59.317Z,24.70
2018-08-03T21:41:28.099Z,24.70
2018-08-03T21:43:56.956Z,24.70
2018-08-03T21:46:25.660Z,24.70
2018-08-03T21:48:54.485Z,24.60
2018-08-03T21:51:23.283Z,24.60
2018-08-03T21:53:52.106Z,24.70
2018-08-03T21:56:20.925Z,24.70
2018-08-03T21:58:49.797Z,24.70
2018-08-03T22:01:18.584Z,24.60
2018-08-03T22:03:47.402Z,24.60
2018-08-03T22:06:16.198Z,24.60
2018-08-03T22:08:44.990Z,24.50
2018-08-03T22:11:13.852Z,24.50
2018-08-03T22:13:42.646Z,24.50
2018-08-03T22:16:11.613Z,24.40
2018-08-03T22:18:40.726Z,24.40
2018-08-03T22:21:09.589Z,24.40
2018-08-03T22:23:38.348Z,24.30
2018-08-03T22:26:07.212Z,24.20
2018-08-03T22:28:36.045Z,24.20
2018-08-03T22:33:39.866Z,24.20
2018-08-03T22:36:08.640Z,24.20
2018-08-03T22:38:37.521Z,24.20
2018-08-03T22:41:06.290Z,24.10
2018-08-03T22:43:35.062Z,24.10
2018-08-03T22:46:03.856Z,24.10
2018-08-03T22:48:32.857Z,24.00
2018-08-03T22:51:01.728Z,24.00
2018-08-03T22:53:30.536Z,24.00
2018-08-03T22:55:59.317Z,24.00
2018-08-03T22:58:28.128Z,23.90
2018-08-03T23:00:56.916Z,23.80
2018-08-03T23:03:25.802Z,23.80
2018-08-03T23:05:54.628Z,23.80
2018-08-03T23:08:23.401Z,23.80
2018-08-03T23:10:52.241Z,23.70
2018-08-03T23:13:21.614Z,23.70
2018-08-03T23:15:50.381Z,23.70
2018-08-03T23:18:19.169Z,23.60
2018-08-03T23:20:47.966Z,23.60
2018-08-03T23:23:16.821Z,23.50
2018-08-03T23:25:45.613Z,23.50
2018-08-03T23:28:14.401Z,23.50
2018-08-03T23:30:43.290Z,23.50
2018-08-03T23:33:12.174Z,23.40
2018-08-03T23:35:40.998Z,23.40
2018-08-03T23:38:09.825Z,23.40
2018-08-03T23:40:38.613Z,23.30
2018-08-03T23:43:07.413Z,23.30
2018-08-03T23:45:36.296Z,23.30
2018-08-03T23:48:05.117Z,23.20
2018-08-03T23:50:33.949Z,23.20
2018-08-03T23:53:02.754Z,23.10
2018-08-03T23:55:31.681Z,23.10
2018-08-03T23:58:00.532Z,23.10
